Aérodrome :
LOGIN :

S'inscrire | Disclaimer

   EN    FR    IT 

 










Légende :    VFR   VFR Marginal   IFR   IFR Intensif   IFR Très Intensif
Visi : 
Plafond : 
>= 8 km
>= 3000ft
5 à 8 km
1000 à 3000 ft
1500m à 5 km
500 à 1000 ft
800 à 1500m
200 à 500 ft
< 800m
< 200 ft
Symboles :   Orages  Brouillard  Fortes neiges  Fortes précipitations  Vent > 20 kt
SIGMETs :   Divers  Orages  Givrage  Turbulence  Onde Orograph.  Cendres Volcan.






- Altitude de l'aérodrome : 70 ft
- Code IATA : WBG


ETNS - Schleswig

DERNIER METAR :
  • 262020Z AUTO 19007KT 9999 // ////// 08/06 Q1000 ///

METARs EXPIRÉS :
  • 261950Z 19007KT 9999 FEW020 SCT050 08/06 Q1000 BLU+FCST CANCEL
  • 261920Z 17008KT 9999 FEW020 BKN047 09/06 Q1000 BLU BLU
  • 261820Z 18007KT 9999 FEW020 SCT250 09/07 Q1000 BLU+BLU

TAF TAF ETNS
Valide du 26 à 18h jusqu'au 27 à 03h UTC


261710Z 2618/2703 18010KT 9999 NSW FEW020 BKN040
TEMPO 2620/2703 17010KT 9999 NSW BKN007 BY ETGL



MET'MAP, la Météo Aéronautique d'un coup d'oeil ! - Copyright ORBIFLY Décembre 2007 - Disclaimer

ORBIFLY MET'MAP TEAM :

Programmation & Développement : Alexandra Zaïnal
Sur une idée originale de : Baudouin d'Aumeries
Assistance à la programmation : Marc-Olivier Méhu
Soutien technique & logistique : Manuel Goepfert

Contact : metmap@orbifly.com




SOURCES & CREDITS :

   NOAA